sensor_id;sensor_type;location;lat;lon;timestamp;pressure;altitude;pressure_sealevel;temperature;humidity
36242;BME280;22283;42.748;12.732;2023-03-03T00:04:56;97881.31;;;4.54;100.00
36242;BME280;22283;42.748;12.732;2023-03-03T00:09:57;97876.16;;;4.52;100.00
36242;BME280;22283;42.748;12.732;2023-03-03T00:14:58;97870.34;;;4.30;100.00
36242;BME280;22283;42.748;12.732;2023-03-03T00:20:01;97871.38;;;4.10;100.00
36242;BME280;22283;42.748;12.732;2023-03-03T00:25:32;97856.69;;;3.90;100.00
36242;BME280;22283;42.748;12.732;2023-03-03T00:30:33;97861.06;;;3.89;100.00
36242;BME280;22283;42.748;12.732;2023-03-03T00:35:34;97865.91;;;3.97;100.00
36242;BME280;22283;42.748;12.732;2023-03-03T00:40:37;97847.81;;;4.10;100.00
36242;BME280;22283;42.748;12.732;2023-03-03T00:45:52;97855.97;;;4.21;100.00
36242;BME280;22283;42.748;12.732;2023-03-03T00:50:58;97849.03;;;4.20;100.00
36242;BME280;22283;42.748;12.732;2023-03-03T00:55:59;97842.19;;;4.17;100.00
36242;BME280;22283;42.748;12.732;2023-03-03T01:01:00;97845.09;;;4.11;100.00
36242;BME280;22283;42.748;12.732;2023-03-03T01:06:11;97848.66;;;4.10;100.00
36242;BME280;22283;42.748;12.732;2023-03-03T01:11:16;97859.81;;;4.14;100.00
36242;BME280;22283;42.748;12.732;2023-03-03T01:16:19;97842.28;;;4.16;100.00
36242;BME280;22283;42.748;12.732;2023-03-03T01:21:20;97848.63;;;4.28;100.00
36242;BME280;22283;42.748;12.732;2023-03-03T01:26:21;97840.13;;;4.40;100.00
36242;BME280;22283;42.748;12.732;2023-03-03T01:31:22;97833.88;;;4.42;100.00
36242;BME280;22283;42.748;12.732;2023-03-03T01:36:27;97820.94;;;4.39;100.00
36242;BME280;22283;42.748;12.732;2023-03-03T01:41:31;97821.72;;;4.41;100.00
36242;BME280;22283;42.748;12.732;2023-03-03T01:46:41;97823.06;;;4.49;100.00
36242;BME280;22283;42.748;12.732;2023-03-03T01:51:51;97816.31;;;4.44;100.00
36242;BME280;22283;42.748;12.732;2023-03-03T01:56:58;97808.88;;;4.53;100.00
36242;BME280;22283;42.748;12.732;2023-03-03T02:02:00;97798.41;;;4.53;100.00
36242;BME280;22283;42.748;12.732;2023-03-03T02:07:05;97810.41;;;4.57;100.00
36242;BME280;22283;42.748;12.732;2023-03-03T02:12:11;97803.81;;;4.65;100.00
36242;BME280;22283;42.748;12.732;2023-03-03T02:17:13;97798.56;;;4.65;100.00
36242;BME280;22283;42.748;12.732;2023-03-03T02:22:15;97803.28;;;4.59;100.00
36242;BME280;22283;42.748;12.732;2023-03-03T02:27:21;97796.53;;;4.55;100.00
36242;BME280;22283;42.748;12.732;2023-03-03T02:32:22;97797.72;;;4.49;100.00
36242;BME280;22283;42.748;12.732;2023-03-03T02:37:22;97795.50;;;4.41;100.00
36242;BME280;22283;42.748;12.732;2023-03-03T02:42:26;97787.06;;;4.36;100.00
36242;BME280;22283;42.748;12.732;2023-03-03T02:47:31;97783.06;;;4.29;100.00
36242;BME280;22283;42.748;12.732;2023-03-03T02:52:33;97766.94;;;4.21;100.00
36242;BME280;22283;42.748;12.732;2023-03-03T02:57:34;97770.28;;;4.23;100.00
36242;BME280;22283;42.748;12.732;2023-03-03T03:02:35;97775.88;;;4.17;100.00
36242;BME280;22283;42.748;12.732;2023-03-03T03:07:36;97783.94;;;3.97;100.00
36242;BME280;22283;42.748;12.732;2023-03-03T03:12:37;97772.25;;;3.86;100.00
36242;BME280;22283;42.748;12.732;2023-03-03T03:17:38;97764.53;;;3.83;100.00
36242;BME280;22283;42.748;12.732;2023-03-03T03:22:40;97761.41;;;3.77;100.00
36242;BME280;22283;42.748;12.732;2023-03-03T03:27:42;97768.63;;;3.72;100.00
36242;BME280;22283;42.748;12.732;2023-03-03T03:32:42;97766.97;;;3.53;100.00
36242;BME280;22283;42.748;12.732;2023-03-03T03:37:43;97771.81;;;3.43;100.00
36242;BME280;22283;42.748;12.732;2023-03-03T03:42:44;97768.75;;;3.53;100.00
36242;BME280;22283;42.748;12.732;2023-03-03T03:47:45;97765.50;;;3.48;100.00
36242;BME280;22283;42.748;12.732;2023-03-03T03:52:48;97766.50;;;3.45;100.00
36242;BME280;22283;42.748;12.732;2023-03-03T03:57:49;97775.19;;;3.28;100.00
36242;BME280;22283;42.748;12.732;2023-03-03T04:02:50;97775.25;;;3.09;100.00
36242;BME280;22283;42.748;12.732;2023-03-03T04:07:52;97776.84;;;2.94;100.00
36242;BME280;22283;42.748;12.732;2023-03-03T04:12:53;97773.25;;;2.78;100.00
36242;BME280;22283;42.748;12.732;2023-03-03T04:17:55;97780.78;;;2.84;100.00
36242;BME280;22283;42.748;12.732;2023-03-03T04:22:55;97775.09;;;2.76;100.00
36242;BME280;22283;42.748;12.732;2023-03-03T04:27:58;97772.91;;;2.67;100.00
36242;BME280;22283;42.748;12.732;2023-03-03T04:32:59;97773.19;;;2.61;100.00
36242;BME280;22283;42.748;12.732;2023-03-03T04:38:01;97777.72;;;2.57;100.00
36242;BME280;22283;42.748;12.732;2023-03-03T04:43:02;97778.41;;;2.61;100.00
36242;BME280;22283;42.748;12.732;2023-03-03T04:48:04;97770.66;;;2.59;100.00
36242;BME280;22283;42.748;12.732;2023-03-03T04:53:05;97775.31;;;2.53;100.00
36242;BME280;22283;42.748;12.732;2023-03-03T04:58:06;97774.06;;;2.42;100.00
36242;BME280;22283;42.748;12.732;2023-03-03T05:03:11;97779.69;;;2.33;100.00
36242;BME280;22283;42.748;12.732;2023-03-03T05:08:13;97776.31;;;2.31;100.00
36242;BME280;22283;42.748;12.732;2023-03-03T05:13:14;97788.56;;;2.29;100.00
36242;BME280;22283;42.748;12.732;2023-03-03T05:18:18;97787.19;;;2.22;100.00
36242;BME280;22283;42.748;12.732;2023-03-03T05:23:19;97791.84;;;2.34;100.00
36242;BME280;22283;42.748;12.732;2023-03-03T05:28:20;97799.91;;;2.30;100.00
36242;BME280;22283;42.748;12.732;2023-03-03T05:33:21;97802.97;;;2.19;100.00
36242;BME280;22283;42.748;12.732;2023-03-03T05:38:23;97805.44;;;2.22;100.00
36242;BME280;22283;42.748;12.732;2023-03-03T05:43:24;97803.47;;;2.27;100.00
36242;BME280;22283;42.748;12.732;2023-03-03T05:48:25;97814.53;;;2.32;100.00
36242;BME280;22283;42.748;12.732;2023-03-03T05:53:27;97805.25;;;2.45;100.00
36242;BME280;22283;42.748;12.732;2023-03-03T05:58:28;97815.63;;;2.66;100.00
36242;BME280;22283;42.748;12.732;2023-03-03T06:03:28;97821.03;;;2.80;100.00
36242;BME280;22283;42.748;12.732;2023-03-03T06:08:29;97828.03;;;2.99;100.00
36242;BME280;22283;42.748;12.732;2023-03-03T06:13:31;97820.06;;;3.19;100.00
36242;BME280;22283;42.748;12.732;2023-03-03T06:18:32;97819.56;;;3.30;100.00
36242;BME280;22283;42.748;12.732;2023-03-03T06:23:33;97815.28;;;3.46;100.00
36242;BME280;22283;42.748;12.732;2023-03-03T06:28:34;97830.06;;;3.64;100.00
36242;BME280;22283;42.748;12.732;2023-03-03T06:33:34;97823.06;;;3.65;100.00
36242;BME280;22283;42.748;12.732;2023-03-03T06:38:35;97822.91;;;3.85;100.00
36242;BME280;22283;42.748;12.732;2023-03-03T06:43:36;97827.84;;;4.07;100.00
36242;BME280;22283;42.748;12.732;2023-03-03T06:48:37;97832.44;;;4.19;100.00
36242;BME280;22283;42.748;12.732;2023-03-03T06:53:37;97839.75;;;4.30;100.00
36242;BME280;22283;42.748;12.732;2023-03-03T06:58:38;97840.38;;;4.51;100.00
36242;BME280;22283;42.748;12.732;2023-03-03T07:03:39;97825.31;;;4.72;100.00
36242;BME280;22283;42.748;12.732;2023-03-03T07:08:39;97820.13;;;4.86;100.00
36242;BME280;22283;42.748;12.732;2023-03-03T07:13:44;97831.22;;;5.07;100.00
36242;BME280;22283;42.748;12.732;2023-03-03T07:18:51;97854.41;;;5.31;100.00
36242;BME280;22283;42.748;12.732;2023-03-03T07:23:53;97840.47;;;5.60;100.00
36242;BME280;22283;42.748;12.732;2023-03-03T07:28:57;97838.19;;;5.84;100.00
36242;BME280;22283;42.748;12.732;2023-03-03T07:33:59;97839.25;;;6.26;100.00
36242;BME280;22283;42.748;12.732;2023-03-03T07:39:03;97844.50;;;6.55;100.00
36242;BME280;22283;42.748;12.732;2023-03-03T07:44:40;97850.13;;;6.77;99.78
36242;BME280;22283;42.748;12.732;2023-03-03T07:49:40;97860.53;;;6.93;98.39
36242;BME280;22283;42.748;12.732;2023-03-03T07:54:44;97858.50;;;7.11;96.18
36242;BME280;22283;42.748;12.732;2023-03-03T08:05:26;97855.16;;;7.63;91.35
36242;BME280;22283;42.748;12.732;2023-03-03T08:15:36;97860.22;;;8.06;88.37
36242;BME280;22283;42.748;12.732;2023-03-03T08:20:45;97864.56;;;8.32;86.12
36242;BME280;22283;42.748;12.732;2023-03-03T08:25:48;97858.69;;;8.67;81.46
36242;BME280;22283;42.748;12.732;2023-03-03T08:30:50;97852.41;;;9.30;84.06
36242;BME280;22283;42.748;12.732;2023-03-03T08:35:51;97851.53;;;9.91;79.24
36242;BME280;22283;42.748;12.732;2023-03-03T08:40:51;97851.22;;;10.64;74.31
36242;BME280;22283;42.748;12.732;2023-03-03T08:45:53;97841.78;;;11.16;69.68
36242;BME280;22283;42.748;12.732;2023-03-03T08:50:55;97848.41;;;11.33;67.67
36242;BME280;22283;42.748;12.732;2023-03-03T08:55:56;97848.91;;;11.04;70.34
36242;BME280;22283;42.748;12.732;2023-03-03T09:00:57;97862.41;;;10.90;70.12
36242;BME280;22283;42.748;12.732;2023-03-03T09:06:05;97853.97;;;11.07;66.58
36242;BME280;22283;42.748;12.732;2023-03-03T09:11:11;97854.59;;;10.66;67.19
36242;BME280;22283;42.748;12.732;2023-03-03T09:16:13;97855.78;;;10.84;68.15
36242;BME280;22283;42.748;12.732;2023-03-03T09:21:25;97865.53;;;11.06;66.11
36242;BME280;22283;42.748;12.732;2023-03-03T09:26:47;97858.63;;;11.26;66.87
36242;BME280;22283;42.748;12.732;2023-03-03T09:31:51;97853.22;;;11.71;65.99
36242;BME280;22283;42.748;12.732;2023-03-03T09:36:53;97853.66;;;11.88;62.58
36242;BME280;22283;42.748;12.732;2023-03-03T10:09:00;97860.28;;;11.50;72.46
36242;BME280;22283;42.748;12.732;2023-03-03T10:24:30;97851.88;;;11.45;75.09
36242;BME280;22283;42.748;12.732;2023-03-03T10:40:25;97845.88;;;12.07;67.37
36242;BME280;22283;42.748;12.732;2023-03-03T10:45:55;97838.13;;;12.67;60.08
36242;BME280;22283;42.748;12.732;2023-03-03T10:56:28;97837.84;;;12.60;60.57
36242;BME280;22283;42.748;12.732;2023-03-03T11:01:56;97825.28;;;12.41;64.55
36242;BME280;22283;42.748;12.732;2023-03-03T11:39:07;97810.13;;;12.84;66.70
36242;BME280;22283;42.748;12.732;2023-03-03T11:44:19;97798.97;;;12.90;64.68
36242;BME280;22283;42.748;12.732;2023-03-03T11:49:28;97783.66;;;13.03;63.73
36242;BME280;22283;42.748;12.732;2023-03-03T12:26:57;97742.88;;;13.82;60.69
36242;BME280;22283;42.748;12.732;2023-03-03T12:48:37;97724.44;;;13.32;57.75
36242;BME280;22283;42.748;12.732;2023-03-03T13:14:59;97713.50;;;13.15;53.33
36242;BME280;22283;42.748;12.732;2023-03-03T13:20:07;97717.44;;;13.40;52.87
36242;BME280;22283;42.748;12.732;2023-03-03T13:25:49;97716.03;;;13.56;53.00
36242;BME280;22283;42.748;12.732;2023-03-03T13:30:57;97712.06;;;13.89;53.08
36242;BME280;22283;42.748;12.732;2023-03-03T13:36:12;97719.38;;;13.77;52.72
36242;BME280;22283;42.748;12.732;2023-03-03T13:41:35;97709.28;;;13.81;54.87
36242;BME280;22283;42.748;12.732;2023-03-03T13:57:23;97690.28;;;13.66;55.56
36242;BME280;22283;42.748;12.732;2023-03-03T14:02:50;97692.56;;;13.32;56.13
36242;BME280;22283;42.748;12.732;2023-03-03T14:08:00;97684.69;;;13.11;56.88
36242;BME280;22283;42.748;12.732;2023-03-03T14:13:08;97692.19;;;12.86;58.36
36242;BME280;22283;42.748;12.732;2023-03-03T14:18:29;97698.84;;;12.61;60.02
36242;BME280;22283;42.748;12.732;2023-03-03T14:28:50;97707.38;;;12.24;59.81
36242;BME280;22283;42.748;12.732;2023-03-03T14:39:39;97697.19;;;11.99;61.70
36242;BME280;22283;42.748;12.732;2023-03-03T14:44:54;97698.22;;;12.07;61.83
36242;BME280;22283;42.748;12.732;2023-03-03T14:49:56;97710.19;;;12.02;61.33
36242;BME280;22283;42.748;12.732;2023-03-03T14:55:36;97697.28;;;12.18;62.37
36242;BME280;22283;42.748;12.732;2023-03-03T15:00:38;97698.16;;;11.98;61.01
36242;BME280;22283;42.748;12.732;2023-03-03T15:05:48;97693.75;;;11.66;61.55
36242;BME280;22283;42.748;12.732;2023-03-03T15:10:49;97695.88;;;11.51;62.06
36242;BME280;22283;42.748;12.732;2023-03-03T15:21:08;97699.59;;;11.28;62.35
36242;BME280;22283;42.748;12.732;2023-03-03T15:31:55;97703.13;;;11.28;62.73
36242;BME280;22283;42.748;12.732;2023-03-03T15:42:14;97703.69;;;11.32;62.91
36242;BME280;22283;42.748;12.732;2023-03-03T16:02:53;97708.59;;;10.61;62.86
36242;BME280;22283;42.748;12.732;2023-03-03T16:13:31;97713.56;;;10.32;67.11
36242;BME280;22283;42.748;12.732;2023-03-03T16:19:05;97716.66;;;10.15;67.99
36242;BME280;22283;42.748;12.732;2023-03-03T16:24:32;97722.28;;;9.99;68.49
36242;BME280;22283;42.748;12.732;2023-03-03T16:35:20;97724.09;;;9.52;73.13
36242;BME280;22283;42.748;12.732;2023-03-03T16:40:44;97736.50;;;9.27;75.90
36242;BME280;22283;42.748;12.732;2023-03-03T16:45:48;97736.59;;;9.02;78.34
36242;BME280;22283;42.748;12.732;2023-03-03T17:06:52;97766.31;;;8.43;83.40
36242;BME280;22283;42.748;12.732;2023-03-03T17:12:05;97778.75;;;8.28;84.22
36242;BME280;22283;42.748;12.732;2023-03-03T17:33:18;97793.25;;;7.83;86.97
36242;BME280;22283;42.748;12.732;2023-03-03T17:44:10;97812.00;;;7.66;86.97
36242;BME280;22283;42.748;12.732;2023-03-03T17:49:41;97820.41;;;7.58;88.50
36242;BME280;22283;42.748;12.732;2023-03-03T18:22:12;97853.69;;;6.76;92.91
36242;BME280;22283;42.748;12.732;2023-03-03T18:32:23;97851.69;;;6.37;96.72
36242;BME280;22283;42.748;12.732;2023-03-03T18:42:41;97858.50;;;5.97;100.00
36242;BME280;22283;42.748;12.732;2023-03-03T18:48:03;97860.56;;;5.76;100.00
36242;BME280;22283;42.748;12.732;2023-03-03T19:13:40;97879.97;;;5.27;100.00
36242;BME280;22283;42.748;12.732;2023-03-03T19:23:48;97885.38;;;5.24;100.00
36242;BME280;22283;42.748;12.732;2023-03-03T19:39:46;97911.72;;;4.89;100.00
36242;BME280;22283;42.748;12.732;2023-03-03T19:45:18;97902.84;;;4.76;100.00
36242;BME280;22283;42.748;12.732;2023-03-03T19:50:29;97905.47;;;4.59;100.00
36242;BME280;22283;42.748;12.732;2023-03-03T20:06:42;97918.19;;;4.33;100.00
36242;BME280;22283;42.748;12.732;2023-03-03T20:12:11;97921.56;;;4.18;100.00
36242;BME280;22283;42.748;12.732;2023-03-03T20:17:50;97923.56;;;3.95;100.00
36242;BME280;22283;42.748;12.732;2023-03-03T20:39:21;97908.13;;;3.55;100.00
36242;BME280;22283;42.748;12.732;2023-03-03T20:44:35;97912.81;;;3.48;100.00
36242;BME280;22283;42.748;12.732;2023-03-03T20:50:01;97912.13;;;3.44;100.00
36242;BME280;22283;42.748;12.732;2023-03-03T20:55:42;97908.31;;;3.33;100.00
36242;BME280;22283;42.748;12.732;2023-03-03T21:01:11;97910.94;;;3.14;100.00
36242;BME280;22283;42.748;12.732;2023-03-03T21:06:17;97918.34;;;3.23;100.00
36242;BME280;22283;42.748;12.732;2023-03-03T21:16:31;97909.41;;;3.10;100.00
36242;BME280;22283;42.748;12.732;2023-03-03T21:21:35;97912.28;;;3.04;100.00
36242;BME280;22283;42.748;12.732;2023-03-03T21:31:57;97918.22;;;2.88;100.00
36242;BME280;22283;42.748;12.732;2023-03-03T21:36:59;97920.53;;;2.76;100.00
36242;BME280;22283;42.748;12.732;2023-03-03T21:42:03;97901.63;;;2.70;100.00
36242;BME280;22283;42.748;12.732;2023-03-03T21:47:06;97917.63;;;2.63;100.00
36242;BME280;22283;42.748;12.732;2023-03-03T21:52:07;97913.47;;;2.59;100.00
36242;BME280;22283;42.748;12.732;2023-03-03T21:57:09;97910.72;;;2.62;100.00
36242;BME280;22283;42.748;12.732;2023-03-03T22:02:10;97912.97;;;2.51;100.00
36242;BME280;22283;42.748;12.732;2023-03-03T22:07:12;97915.81;;;2.44;100.00
36242;BME280;22283;42.748;12.732;2023-03-03T22:12:13;97923.47;;;2.29;100.00
36242;BME280;22283;42.748;12.732;2023-03-03T22:17:14;97927.53;;;2.36;100.00
36242;BME280;22283;42.748;12.732;2023-03-03T22:22:14;97929.28;;;2.35;100.00
36242;BME280;22283;42.748;12.732;2023-03-03T22:27:16;97917.28;;;2.31;100.00
36242;BME280;22283;42.748;12.732;2023-03-03T22:32:17;97917.91;;;2.36;100.00
36242;BME280;22283;42.748;12.732;2023-03-03T22:37:17;97919.50;;;2.20;100.00
36242;BME280;22283;42.748;12.732;2023-03-03T22:42:18;97914.16;;;2.23;100.00
36242;BME280;22283;42.748;12.732;2023-03-03T22:47:21;97920.63;;;2.14;100.00
36242;BME280;22283;42.748;12.732;2023-03-03T22:52:21;97927.97;;;2.25;100.00
36242;BME280;22283;42.748;12.732;2023-03-03T22:57:22;97922.22;;;2.37;100.00
36242;BME280;22283;42.748;12.732;2023-03-03T23:02:23;97921.47;;;2.35;100.00
36242;BME280;22283;42.748;12.732;2023-03-03T23:07:23;97916.50;;;2.50;100.00
36242;BME280;22283;42.748;12.732;2023-03-03T23:12:26;97916.38;;;2.32;100.00
36242;BME280;22283;42.748;12.732;2023-03-03T23:17:26;97928.38;;;2.16;100.00
36242;BME280;22283;42.748;12.732;2023-03-03T23:22:27;97921.16;;;2.02;100.00
36242;BME280;22283;42.748;12.732;2023-03-03T23:27:28;97936.44;;;1.89;100.00
36242;BME280;22283;42.748;12.732;2023-03-03T23:32:28;97937.78;;;1.78;100.00
36242;BME280;22283;42.748;12.732;2023-03-03T23:37:29;97918.88;;;1.72;100.00
36242;BME280;22283;42.748;12.732;2023-03-03T23:42:30;97923.63;;;1.63;100.00
36242;BME280;22283;42.748;12.732;2023-03-03T23:47:30;97937.81;;;1.56;100.00
36242;BME280;22283;42.748;12.732;2023-03-03T23:52:31;97934.41;;;1.54;100.00
36242;BME280;22283;42.748;12.732;2023-03-03T23:57:32;97931.16;;;1.48;100.00
